sensor_id;sensor_type;location;lat;lon;timestamp;temperature;humidity
72814;DHT22;60945;48.516;-2.768;2023-02-08T00:01:27;4.60;60.70
72814;DHT22;60945;48.516;-2.768;2023-02-08T00:03:53;4.50;61.50
72814;DHT22;60945;48.516;-2.768;2023-02-08T00:06:18;4.60;61.30
72814;DHT22;60945;48.516;-2.768;2023-02-08T00:08:44;4.80;61.00
72814;DHT22;60945;48.516;-2.768;2023-02-08T00:11:11;4.60;61.10
72814;DHT22;60945;48.516;-2.768;2023-02-08T00:13:38;4.70;60.70
72814;DHT22;60945;48.516;-2.768;2023-02-08T00:16:04;4.70;59.90
72814;DHT22;60945;48.516;-2.768;2023-02-08T00:18:30;4.70;59.70
72814;DHT22;60945;48.516;-2.768;2023-02-08T00:20:56;4.80;59.20
72814;DHT22;60945;48.516;-2.768;2023-02-08T00:23:23;4.80;58.60
72814;DHT22;60945;48.516;-2.768;2023-02-08T00:25:49;4.60;58.60
72814;DHT22;60945;48.516;-2.768;2023-02-08T00:28:16;4.40;59.20
72814;DHT22;60945;48.516;-2.768;2023-02-08T00:30:43;4.30;59.70
72814;DHT22;60945;48.516;-2.768;2023-02-08T00:33:09;4.50;60.00
72814;DHT22;60945;48.516;-2.768;2023-02-08T00:35:35;4.60;60.00
72814;DHT22;60945;48.516;-2.768;2023-02-08T00:38:01;4.70;59.60
72814;DHT22;60945;48.516;-2.768;2023-02-08T00:40:27;4.70;59.70
72814;DHT22;60945;48.516;-2.768;2023-02-08T00:42:53;4.50;60.30
72814;DHT22;60945;48.516;-2.768;2023-02-08T00:45:22;4.60;59.20
72814;DHT22;60945;48.516;-2.768;2023-02-08T00:47:48;4.30;59.40
72814;DHT22;60945;48.516;-2.768;2023-02-08T00:50:13;4.30;59.50
72814;DHT22;60945;48.516;-2.768;2023-02-08T00:52:39;4.30;59.40
72814;DHT22;60945;48.516;-2.768;2023-02-08T00:55:05;4.40;59.30
72814;DHT22;60945;48.516;-2.768;2023-02-08T00:57:32;4.30;60.30
72814;DHT22;60945;48.516;-2.768;2023-02-08T00:59:57;4.40;59.80
72814;DHT22;60945;48.516;-2.768;2023-02-08T01:02:23;4.50;59.60
72814;DHT22;60945;48.516;-2.768;2023-02-08T01:04:49;4.20;60.00
72814;DHT22;60945;48.516;-2.768;2023-02-08T01:07:18;4.20;59.50
72814;DHT22;60945;48.516;-2.768;2023-02-08T01:09:43;3.90;60.10
72814;DHT22;60945;48.516;-2.768;2023-02-08T01:12:09;3.70;61.10
72814;DHT22;60945;48.516;-2.768;2023-02-08T01:14:37;3.80;61.00
72814;DHT22;60945;48.516;-2.768;2023-02-08T01:17:03;3.90;61.30
72814;DHT22;60945;48.516;-2.768;2023-02-08T01:19:29;4.10;61.40
72814;DHT22;60945;48.516;-2.768;2023-02-08T01:21:54;4.20;60.20
72814;DHT22;60945;48.516;-2.768;2023-02-08T01:24:21;4.30;60.20
72814;DHT22;60945;48.516;-2.768;2023-02-08T01:26:46;4.20;59.90
72814;DHT22;60945;48.516;-2.768;2023-02-08T01:29:12;4.20;60.40
72814;DHT22;60945;48.516;-2.768;2023-02-08T01:31:40;4.20;60.90
72814;DHT22;60945;48.516;-2.768;2023-02-08T01:34:07;4.30;60.30
72814;DHT22;60945;48.516;-2.768;2023-02-08T01:36:34;4.10;60.80
72814;DHT22;60945;48.516;-2.768;2023-02-08T01:39:00;4.10;60.00
72814;DHT22;60945;48.516;-2.768;2023-02-08T01:41:29;4.00;60.30
72814;DHT22;60945;48.516;-2.768;2023-02-08T01:46:37;4.00;61.30
72814;DHT22;60945;48.516;-2.768;2023-02-08T01:49:27;4.00;61.10
72814;DHT22;60945;48.516;-2.768;2023-02-08T01:54:25;3.90;60.60
72814;DHT22;60945;48.516;-2.768;2023-02-08T01:56:51;3.90;61.00
72814;DHT22;60945;48.516;-2.768;2023-02-08T01:59:24;3.90;61.60
72814;DHT22;60945;48.516;-2.768;2023-02-08T02:01:53;4.00;61.20
72814;DHT22;60945;48.516;-2.768;2023-02-08T02:04:21;3.80;61.50
72814;DHT22;60945;48.516;-2.768;2023-02-08T02:06:49;3.80;61.10
72814;DHT22;60945;48.516;-2.768;2023-02-08T02:09:30;3.70;61.30
72814;DHT22;60945;48.516;-2.768;2023-02-08T02:11:58;3.90;61.80
72814;DHT22;60945;48.516;-2.768;2023-02-08T02:14:25;4.00;61.20
72814;DHT22;60945;48.516;-2.768;2023-02-08T02:16:53;3.80;61.30
72814;DHT22;60945;48.516;-2.768;2023-02-08T02:19:47;3.70;62.00
72814;DHT22;60945;48.516;-2.768;2023-02-08T02:44:34;3.70;62.10
72814;DHT22;60945;48.516;-2.768;2023-02-08T02:47:18;3.70;62.20
72814;DHT22;60945;48.516;-2.768;2023-02-08T02:49:54;3.70;61.90
72814;DHT22;60945;48.516;-2.768;2023-02-08T02:52:27;3.60;62.20
72814;DHT22;60945;48.516;-2.768;2023-02-08T02:55:02;3.70;62.30
72814;DHT22;60945;48.516;-2.768;2023-02-08T02:57:31;3.80;62.10
72814;DHT22;60945;48.516;-2.768;2023-02-08T02:59:58;3.80;61.50
72814;DHT22;60945;48.516;-2.768;2023-02-08T03:02:25;3.80;61.60
72814;DHT22;60945;48.516;-2.768;2023-02-08T03:04:53;3.60;62.20
72814;DHT22;60945;48.516;-2.768;2023-02-08T03:18:35;3.70;61.90
72814;DHT22;60945;48.516;-2.768;2023-02-08T03:21:11;3.70;61.70
72814;DHT22;60945;48.516;-2.768;2023-02-08T03:23:45;3.50;62.20
72814;DHT22;60945;48.516;-2.768;2023-02-08T03:31:47;3.50;62.30
72814;DHT22;60945;48.516;-2.768;2023-02-08T03:40:10;3.70;61.50
72814;DHT22;60945;48.516;-2.768;2023-02-08T03:42:39;3.50;62.10
72814;DHT22;60945;48.516;-2.768;2023-02-08T03:45:17;3.40;62.50
72814;DHT22;60945;48.516;-2.768;2023-02-08T03:47:45;3.50;62.20
72814;DHT22;60945;48.516;-2.768;2023-02-08T03:50:14;3.40;62.50
72814;DHT22;60945;48.516;-2.768;2023-02-08T03:52:46;3.40;62.40
72814;DHT22;60945;48.516;-2.768;2023-02-08T03:55:15;3.30;62.70
72814;DHT22;60945;48.516;-2.768;2023-02-08T03:58:17;3.50;62.10
72814;DHT22;60945;48.516;-2.768;2023-02-08T04:00:42;3.30;62.80
72814;DHT22;60945;48.516;-2.768;2023-02-08T04:03:13;3.50;62.10
72814;DHT22;60945;48.516;-2.768;2023-02-08T04:05:40;3.40;62.50
72814;DHT22;60945;48.516;-2.768;2023-02-08T04:08:06;3.40;62.60
72814;DHT22;60945;48.516;-2.768;2023-02-08T04:10:32;3.30;62.60
72814;DHT22;60945;48.516;-2.768;2023-02-08T04:12:58;3.30;62.90
72814;DHT22;60945;48.516;-2.768;2023-02-08T04:15:24;3.10;63.20
72814;DHT22;60945;48.516;-2.768;2023-02-08T04:17:52;3.20;63.00
72814;DHT22;60945;48.516;-2.768;2023-02-08T04:20:18;3.20;62.80
72814;DHT22;60945;48.516;-2.768;2023-02-08T04:22:43;3.20;63.20
72814;DHT22;60945;48.516;-2.768;2023-02-08T04:25:09;3.30;63.40
72814;DHT22;60945;48.516;-2.768;2023-02-08T04:27:35;3.40;62.70
72814;DHT22;60945;48.516;-2.768;2023-02-08T04:30:04;3.20;62.80
72814;DHT22;60945;48.516;-2.768;2023-02-08T04:32:30;3.10;62.70
72814;DHT22;60945;48.516;-2.768;2023-02-08T04:34:55;3.20;62.60
72814;DHT22;60945;48.516;-2.768;2023-02-08T04:37:21;3.30;62.80
72814;DHT22;60945;48.516;-2.768;2023-02-08T04:39:47;3.50;62.50
72814;DHT22;60945;48.516;-2.768;2023-02-08T04:42:13;3.50;62.60
72814;DHT22;60945;48.516;-2.768;2023-02-08T04:44:39;3.60;62.20
72814;DHT22;60945;48.516;-2.768;2023-02-08T04:47:07;3.30;63.20
72814;DHT22;60945;48.516;-2.768;2023-02-08T04:49:32;3.20;63.30
72814;DHT22;60945;48.516;-2.768;2023-02-08T04:51:58;3.50;63.00
72814;DHT22;60945;48.516;-2.768;2023-02-08T04:54:24;3.50;62.60
72814;DHT22;60945;48.516;-2.768;2023-02-08T04:56:50;3.30;62.80
72814;DHT22;60945;48.516;-2.768;2023-02-08T04:59:15;3.20;63.00
72814;DHT22;60945;48.516;-2.768;2023-02-08T05:01:41;3.20;63.10
72814;DHT22;60945;48.516;-2.768;2023-02-08T05:04:07;3.30;63.00
72814;DHT22;60945;48.516;-2.768;2023-02-08T05:06:32;3.10;63.20
72814;DHT22;60945;48.516;-2.768;2023-02-08T05:08:58;3.20;63.10
72814;DHT22;60945;48.516;-2.768;2023-02-08T05:11:24;3.10;63.40
72814;DHT22;60945;48.516;-2.768;2023-02-08T05:13:50;3.20;63.60
72814;DHT22;60945;48.516;-2.768;2023-02-08T05:16:16;3.10;63.80
72814;DHT22;60945;48.516;-2.768;2023-02-08T05:18:42;3.10;63.70
72814;DHT22;60945;48.516;-2.768;2023-02-08T05:21:08;3.40;62.60
72814;DHT22;60945;48.516;-2.768;2023-02-08T05:23:34;3.40;62.70
72814;DHT22;60945;48.516;-2.768;2023-02-08T05:26:08;3.30;62.60
72814;DHT22;60945;48.516;-2.768;2023-02-08T05:28:35;3.40;62.50
72814;DHT22;60945;48.516;-2.768;2023-02-08T05:33:38;3.00;62.80
72814;DHT22;60945;48.516;-2.768;2023-02-08T05:36:04;3.00;63.50
72814;DHT22;60945;48.516;-2.768;2023-02-08T05:38:30;3.00;63.70
72814;DHT22;60945;48.516;-2.768;2023-02-08T05:40:55;3.10;63.40
72814;DHT22;60945;48.516;-2.768;2023-02-08T05:43:21;3.10;63.20
72814;DHT22;60945;48.516;-2.768;2023-02-08T05:45:48;3.10;63.20
72814;DHT22;60945;48.516;-2.768;2023-02-08T05:48:14;3.10;63.60
72814;DHT22;60945;48.516;-2.768;2023-02-08T05:50:40;3.10;63.50
72814;DHT22;60945;48.516;-2.768;2023-02-08T05:53:06;3.10;64.60
72814;DHT22;60945;48.516;-2.768;2023-02-08T05:55:31;3.20;63.50
72814;DHT22;60945;48.516;-2.768;2023-02-08T05:57:57;3.10;64.10
72814;DHT22;60945;48.516;-2.768;2023-02-08T06:00:23;3.10;63.90
72814;DHT22;60945;48.516;-2.768;2023-02-08T06:02:48;3.10;63.90
72814;DHT22;60945;48.516;-2.768;2023-02-08T06:05:14;3.20;63.20
72814;DHT22;60945;48.516;-2.768;2023-02-08T06:07:39;3.00;63.90
72814;DHT22;60945;48.516;-2.768;2023-02-08T06:10:06;3.10;63.70
72814;DHT22;60945;48.516;-2.768;2023-02-08T06:12:34;3.00;63.90
72814;DHT22;60945;48.516;-2.768;2023-02-08T06:15:00;2.90;63.90
72814;DHT22;60945;48.516;-2.768;2023-02-08T06:17:26;2.80;64.10
72814;DHT22;60945;48.516;-2.768;2023-02-08T06:19:52;2.90;63.70
72814;DHT22;60945;48.516;-2.768;2023-02-08T06:22:18;3.00;64.00
72814;DHT22;60945;48.516;-2.768;2023-02-08T06:24:43;3.00;63.80
72814;DHT22;60945;48.516;-2.768;2023-02-08T06:27:09;3.00;63.70
72814;DHT22;60945;48.516;-2.768;2023-02-08T06:29:34;2.90;63.60
72814;DHT22;60945;48.516;-2.768;2023-02-08T06:32:00;2.80;64.10
72814;DHT22;60945;48.516;-2.768;2023-02-08T06:34:26;3.00;63.60
72814;DHT22;60945;48.516;-2.768;2023-02-08T06:36:54;3.00;63.60
72814;DHT22;60945;48.516;-2.768;2023-02-08T06:39:19;3.10;63.10
72814;DHT22;60945;48.516;-2.768;2023-02-08T06:41:45;2.80;63.40
72814;DHT22;60945;48.516;-2.768;2023-02-08T06:44:11;2.90;63.10
72814;DHT22;60945;48.516;-2.768;2023-02-08T06:46:36;3.00;62.70
72814;DHT22;60945;48.516;-2.768;2023-02-08T06:49:02;3.00;63.20
72814;DHT22;60945;48.516;-2.768;2023-02-08T06:51:28;3.10;63.00
72814;DHT22;60945;48.516;-2.768;2023-02-08T06:53:53;3.10;62.90
72814;DHT22;60945;48.516;-2.768;2023-02-08T06:56:19;2.70;63.10
72814;DHT22;60945;48.516;-2.768;2023-02-08T06:58:45;2.70;64.30
72814;DHT22;60945;48.516;-2.768;2023-02-08T07:01:14;2.60;64.50
72814;DHT22;60945;48.516;-2.768;2023-02-08T07:03:40;2.70;64.50
72814;DHT22;60945;48.516;-2.768;2023-02-08T07:06:16;2.60;65.00
72814;DHT22;60945;48.516;-2.768;2023-02-08T07:08:43;2.70;65.40
72814;DHT22;60945;48.516;-2.768;2023-02-08T07:11:13;2.80;64.70
72814;DHT22;60945;48.516;-2.768;2023-02-08T07:13:38;2.90;64.80
72814;DHT22;60945;48.516;-2.768;2023-02-08T07:16:05;3.00;64.60
72814;DHT22;60945;48.516;-2.768;2023-02-08T07:18:31;3.00;64.30
72814;DHT22;60945;48.516;-2.768;2023-02-08T07:20:57;3.00;64.40
72814;DHT22;60945;48.516;-2.768;2023-02-08T07:23:23;3.10;64.10
72814;DHT22;60945;48.516;-2.768;2023-02-08T07:26:09;3.10;63.90
72814;DHT22;60945;48.516;-2.768;2023-02-08T07:28:38;3.20;63.70
72814;DHT22;60945;48.516;-2.768;2023-02-08T07:31:08;3.10;64.10
72814;DHT22;60945;48.516;-2.768;2023-02-08T07:33:34;3.00;64.00
72814;DHT22;60945;48.516;-2.768;2023-02-08T07:36:00;3.00;64.50
72814;DHT22;60945;48.516;-2.768;2023-02-08T07:38:27;2.90;64.50
72814;DHT22;60945;48.516;-2.768;2023-02-08T07:41:03;3.00;64.30
72814;DHT22;60945;48.516;-2.768;2023-02-08T07:43:29;2.90;64.40
72814;DHT22;60945;48.516;-2.768;2023-02-08T07:45:55;3.20;64.00
72814;DHT22;60945;48.516;-2.768;2023-02-08T07:48:21;3.20;63.50
72814;DHT22;60945;48.516;-2.768;2023-02-08T07:50:47;3.20;63.70
72814;DHT22;60945;48.516;-2.768;2023-02-08T07:53:12;3.20;62.80
72814;DHT22;60945;48.516;-2.768;2023-02-08T07:55:38;3.00;63.00
72814;DHT22;60945;48.516;-2.768;2023-02-08T07:58:03;2.90;63.70
72814;DHT22;60945;48.516;-2.768;2023-02-08T08:00:29;3.00;64.20
72814;DHT22;60945;48.516;-2.768;2023-02-08T08:05:23;3.30;63.00
72814;DHT22;60945;48.516;-2.768;2023-02-08T08:07:48;3.20;63.20
72814;DHT22;60945;48.516;-2.768;2023-02-08T08:10:14;3.10;63.10
72814;DHT22;60945;48.516;-2.768;2023-02-08T08:12:40;3.10;63.40
72814;DHT22;60945;48.516;-2.768;2023-02-08T08:15:09;3.30;63.50
72814;DHT22;60945;48.516;-2.768;2023-02-08T08:17:35;3.40;63.10
72814;DHT22;60945;48.516;-2.768;2023-02-08T08:20:00;3.60;62.60
72814;DHT22;60945;48.516;-2.768;2023-02-08T08:22:26;3.80;62.30
72814;DHT22;60945;48.516;-2.768;2023-02-08T08:24:52;4.20;61.50
72814;DHT22;60945;48.516;-2.768;2023-02-08T08:27:18;4.40;60.50
72814;DHT22;60945;48.516;-2.768;2023-02-08T08:29:43;5.00;59.20
72814;DHT22;60945;48.516;-2.768;2023-02-08T08:32:09;5.50;56.80
72814;DHT22;60945;48.516;-2.768;2023-02-08T08:34:35;5.90;55.20
72814;DHT22;60945;48.516;-2.768;2023-02-08T08:37:01;6.10;55.40
72814;DHT22;60945;48.516;-2.768;2023-02-08T08:39:27;6.50;54.00
72814;DHT22;60945;48.516;-2.768;2023-02-08T08:41:57;6.60;53.10
72814;DHT22;60945;48.516;-2.768;2023-02-08T08:44:23;6.90;52.70
72814;DHT22;60945;48.516;-2.768;2023-02-08T08:46:48;5.80;53.60
72814;DHT22;60945;48.516;-2.768;2023-02-08T08:49:14;5.70;55.10
72814;DHT22;60945;48.516;-2.768;2023-02-08T08:51:40;5.80;55.00
72814;DHT22;60945;48.516;-2.768;2023-02-08T08:54:06;5.90;55.20
72814;DHT22;60945;48.516;-2.768;2023-02-08T08:56:32;6.80;53.80
72814;DHT22;60945;48.516;-2.768;2023-02-08T08:58:58;7.20;52.40
72814;DHT22;60945;48.516;-2.768;2023-02-08T09:01:24;7.50;51.70
72814;DHT22;60945;48.516;-2.768;2023-02-08T09:03:51;7.30;52.10
72814;DHT22;60945;48.516;-2.768;2023-02-08T09:06:17;7.90;50.70
72814;DHT22;60945;48.516;-2.768;2023-02-08T09:08:42;8.50;49.20
72814;DHT22;60945;48.516;-2.768;2023-02-08T09:11:13;8.70;47.90
72814;DHT22;60945;48.516;-2.768;2023-02-08T09:13:40;8.60;47.70
72814;DHT22;60945;48.516;-2.768;2023-02-08T09:16:08;9.60;46.60
72814;DHT22;60945;48.516;-2.768;2023-02-08T09:18:34;10.60;44.40
72814;DHT22;60945;48.516;-2.768;2023-02-08T09:21:08;12.00;41.30
72814;DHT22;60945;48.516;-2.768;2023-02-08T09:23:34;13.50;38.90
72814;DHT22;60945;48.516;-2.768;2023-02-08T09:26:05;14.30;37.60
72814;DHT22;60945;48.516;-2.768;2023-02-08T09:28:32;14.70;37.00
72814;DHT22;60945;48.516;-2.768;2023-02-08T09:30:57;15.50;35.90
72814;DHT22;60945;48.516;-2.768;2023-02-08T09:33:26;15.80;35.40
72814;DHT22;60945;48.516;-2.768;2023-02-08T09:35:52;16.10;34.20
72814;DHT22;60945;48.516;-2.768;2023-02-08T09:38:18;16.40;33.70
72814;DHT22;60945;48.516;-2.768;2023-02-08T09:41:09;16.60;33.40
72814;DHT22;60945;48.516;-2.768;2023-02-08T09:47:01;17.60;31.80
72814;DHT22;60945;48.516;-2.768;2023-02-08T09:49:34;17.70;31.40
72814;DHT22;60945;48.516;-2.768;2023-02-08T09:52:02;15.70;33.40
72814;DHT22;60945;48.516;-2.768;2023-02-08T09:54:40;12.60;38.80
72814;DHT22;60945;48.516;-2.768;2023-02-08T09:57:13;11.20;42.20
72814;DHT22;60945;48.516;-2.768;2023-02-08T10:00:03;10.20;44.80
72814;DHT22;60945;48.516;-2.768;2023-02-08T10:02:32;10.00;45.50
72814;DHT22;60945;48.516;-2.768;2023-02-08T10:05:09;9.50;47.10
72814;DHT22;60945;48.516;-2.768;2023-02-08T10:07:40;9.10;47.90
72814;DHT22;60945;48.516;-2.768;2023-02-08T10:10:27;9.00;48.80
72814;DHT22;60945;48.516;-2.768;2023-02-08T10:13:08;8.80;49.00
72814;DHT22;60945;48.516;-2.768;2023-02-08T10:15:50;8.70;49.80
72814;DHT22;60945;48.516;-2.768;2023-02-08T10:18:35;8.40;50.60
72814;DHT22;60945;48.516;-2.768;2023-02-08T10:21:23;8.30;50.60
72814;DHT22;60945;48.516;-2.768;2023-02-08T10:24:00;8.50;50.80
72814;DHT22;60945;48.516;-2.768;2023-02-08T10:34:36;8.70;50.10
72814;DHT22;60945;48.516;-2.768;2023-02-08T10:37:20;8.90;49.80
72814;DHT22;60945;48.516;-2.768;2023-02-08T10:39:48;8.90;50.30
72814;DHT22;60945;48.516;-2.768;2023-02-08T10:42:18;8.90;49.30
72814;DHT22;60945;48.516;-2.768;2023-02-08T10:47:45;8.80;50.30
72814;DHT22;60945;48.516;-2.768;2023-02-08T10:50:34;9.00;49.70
72814;DHT22;60945;48.516;-2.768;2023-02-08T10:53:02;9.10;49.30
72814;DHT22;60945;48.516;-2.768;2023-02-08T10:55:30;9.20;48.70
72814;DHT22;60945;48.516;-2.768;2023-02-08T10:57:59;9.20;49.20
72814;DHT22;60945;48.516;-2.768;2023-02-08T11:00:28;9.20;48.90
72814;DHT22;60945;48.516;-2.768;2023-02-08T11:02:57;9.20;48.50
72814;DHT22;60945;48.516;-2.768;2023-02-08T11:08:09;9.40;49.50
72814;DHT22;60945;48.516;-2.768;2023-02-08T11:10:37;9.40;48.50
72814;DHT22;60945;48.516;-2.768;2023-02-08T11:13:13;9.50;47.80
72814;DHT22;60945;48.516;-2.768;2023-02-08T11:18:25;9.40;46.80
72814;DHT22;60945;48.516;-2.768;2023-02-08T11:20:55;9.50;47.20
72814;DHT22;60945;48.516;-2.768;2023-02-08T11:23:33;9.40;46.90
72814;DHT22;60945;48.516;-2.768;2023-02-08T11:26:23;9.30;47.20
72814;DHT22;60945;48.516;-2.768;2023-02-08T11:29:03;9.40;46.20
72814;DHT22;60945;48.516;-2.768;2023-02-08T11:31:30;9.40;45.50
72814;DHT22;60945;48.516;-2.768;2023-02-08T11:33:58;9.20;45.80
72814;DHT22;60945;48.516;-2.768;2023-02-08T11:36:25;9.10;45.90
72814;DHT22;60945;48.516;-2.768;2023-02-08T11:38:51;9.20;46.10
72814;DHT22;60945;48.516;-2.768;2023-02-08T11:41:18;9.30;45.90
72814;DHT22;60945;48.516;-2.768;2023-02-08T11:44:05;9.40;45.70
72814;DHT22;60945;48.516;-2.768;2023-02-08T11:46:33;9.50;45.70
72814;DHT22;60945;48.516;-2.768;2023-02-08T11:49:00;9.50;46.10
72814;DHT22;60945;48.516;-2.768;2023-02-08T11:51:33;9.60;46.10
72814;DHT22;60945;48.516;-2.768;2023-02-08T11:54:00;9.70;46.30
72814;DHT22;60945;48.516;-2.768;2023-02-08T11:56:29;9.60;46.10
72814;DHT22;60945;48.516;-2.768;2023-02-08T12:01:28;9.20;45.60
72814;DHT22;60945;48.516;-2.768;2023-02-08T12:03:57;8.80;46.80
72814;DHT22;60945;48.516;-2.768;2023-02-08T12:20:35;9.40;44.80
72814;DHT22;60945;48.516;-2.768;2023-02-08T12:25:43;9.10;46.30
72814;DHT22;60945;48.516;-2.768;2023-02-08T12:28:18;9.40;46.20
72814;DHT22;60945;48.516;-2.768;2023-02-08T12:31:03;9.50;46.00
72814;DHT22;60945;48.516;-2.768;2023-02-08T12:41:34;9.60;46.50
72814;DHT22;60945;48.516;-2.768;2023-02-08T12:44:29;9.60;46.50
72814;DHT22;60945;48.516;-2.768;2023-02-08T12:50:02;9.50;46.40
72814;DHT22;60945;48.516;-2.768;2023-02-08T12:52:44;9.70;46.00
72814;DHT22;60945;48.516;-2.768;2023-02-08T12:55:29;9.60;46.10
72814;DHT22;60945;48.516;-2.768;2023-02-08T13:00:46;9.50;45.80
72814;DHT22;60945;48.516;-2.768;2023-02-08T13:05:57;9.80;44.50
72814;DHT22;60945;48.516;-2.768;2023-02-08T13:08:46;9.90;43.70
72814;DHT22;60945;48.516;-2.768;2023-02-08T13:11:58;10.10;43.60
72814;DHT22;60945;48.516;-2.768;2023-02-08T13:14:13;9.80;43.70
72814;DHT22;60945;48.516;-2.768;2023-02-08T13:16:51;10.00;44.00
72814;DHT22;60945;48.516;-2.768;2023-02-08T13:19:22;10.10;44.20
72814;DHT22;60945;48.516;-2.768;2023-02-08T13:21:50;10.00;44.50
72814;DHT22;60945;48.516;-2.768;2023-02-08T13:24:38;9.90;44.80
72814;DHT22;60945;48.516;-2.768;2023-02-08T13:27:05;9.90;44.60
72814;DHT22;60945;48.516;-2.768;2023-02-08T13:29:34;10.10;44.60
72814;DHT22;60945;48.516;-2.768;2023-02-08T13:32:12;10.10;44.10
72814;DHT22;60945;48.516;-2.768;2023-02-08T13:37:32;10.10;44.00
72814;DHT22;60945;48.516;-2.768;2023-02-08T13:40:17;10.10;44.10
72814;DHT22;60945;48.516;-2.768;2023-02-08T13:43:03;10.10;44.40
72814;DHT22;60945;48.516;-2.768;2023-02-08T13:45:35;10.30;43.60
72814;DHT22;60945;48.516;-2.768;2023-02-08T13:48:10;10.30;43.60
72814;DHT22;60945;48.516;-2.768;2023-02-08T13:50:51;10.40;43.30
72814;DHT22;60945;48.516;-2.768;2023-02-08T13:56:04;10.40;43.00
72814;DHT22;60945;48.516;-2.768;2023-02-08T14:01:26;12.70;39.80
72814;DHT22;60945;48.516;-2.768;2023-02-08T14:12:25;19.80;29.20
72814;DHT22;60945;48.516;-2.768;2023-02-08T14:15:33;21.30;27.40
72814;DHT22;60945;48.516;-2.768;2023-02-08T14:18:02;22.60;26.20
72814;DHT22;60945;48.516;-2.768;2023-02-08T14:20:38;22.60;26.10
72814;DHT22;60945;48.516;-2.768;2023-02-08T14:23:23;22.90;26.10
72814;DHT22;60945;48.516;-2.768;2023-02-08T14:25:52;23.60;24.90
72814;DHT22;60945;48.516;-2.768;2023-02-08T14:30:58;24.30;24.60
72814;DHT22;60945;48.516;-2.768;2023-02-08T14:33:31;23.60;24.90
72814;DHT22;60945;48.516;-2.768;2023-02-08T14:36:01;23.50;25.60
72814;DHT22;60945;48.516;-2.768;2023-02-08T14:38:50;23.40;25.60
72814;DHT22;60945;48.516;-2.768;2023-02-08T14:41:45;24.00;25.00
72814;DHT22;60945;48.516;-2.768;2023-02-08T14:50:15;24.20;24.60
72814;DHT22;60945;48.516;-2.768;2023-02-08T14:52:54;24.00;24.80
72814;DHT22;60945;48.516;-2.768;2023-02-08T14:55:27;23.90;25.20
72814;DHT22;60945;48.516;-2.768;2023-02-08T14:57:55;23.70;25.50
72814;DHT22;60945;48.516;-2.768;2023-02-08T15:00:35;23.60;25.60
72814;DHT22;60945;48.516;-2.768;2023-02-08T15:03:03;23.60;25.90
72814;DHT22;60945;48.516;-2.768;2023-02-08T15:08:19;23.30;26.20
72814;DHT22;60945;48.516;-2.768;2023-02-08T15:10:45;23.80;26.00
72814;DHT22;60945;48.516;-2.768;2023-02-08T15:13:19;22.90;27.00
72814;DHT22;60945;48.516;-2.768;2023-02-08T15:15:51;22.60;27.50
72814;DHT22;60945;48.516;-2.768;2023-02-08T15:18:31;20.80;29.40
72814;DHT22;60945;48.516;-2.768;2023-02-08T15:21:03;19.50;31.50
72814;DHT22;60945;48.516;-2.768;2023-02-08T15:23:29;18.90;32.20
72814;DHT22;60945;48.516;-2.768;2023-02-08T15:26:00;17.90;33.60
72814;DHT22;60945;48.516;-2.768;2023-02-08T15:28:28;16.80;34.90
72814;DHT22;60945;48.516;-2.768;2023-02-08T15:31:07;15.90;37.40
72814;DHT22;60945;48.516;-2.768;2023-02-08T15:33:37;15.10;38.70
72814;DHT22;60945;48.516;-2.768;2023-02-08T15:36:13;14.60;40.10
72814;DHT22;60945;48.516;-2.768;2023-02-08T15:38:40;14.10;41.20
72814;DHT22;60945;48.516;-2.768;2023-02-08T15:41:11;13.50;41.80
72814;DHT22;60945;48.516;-2.768;2023-02-08T15:43:39;13.10;43.40
72814;DHT22;60945;48.516;-2.768;2023-02-08T15:46:25;13.10;44.10
72814;DHT22;60945;48.516;-2.768;2023-02-08T15:48:52;12.70;44.70
72814;DHT22;60945;48.516;-2.768;2023-02-08T15:51:20;12.50;45.20
72814;DHT22;60945;48.516;-2.768;2023-02-08T15:53:50;12.10;46.30
72814;DHT22;60945;48.516;-2.768;2023-02-08T15:56:19;12.10;46.70
72814;DHT22;60945;48.516;-2.768;2023-02-08T15:58:52;12.00;47.20
72814;DHT22;60945;48.516;-2.768;2023-02-08T16:01:19;11.80;48.00
72814;DHT22;60945;48.516;-2.768;2023-02-08T16:03:48;11.70;48.10
72814;DHT22;60945;48.516;-2.768;2023-02-08T16:06:23;11.50;48.60
72814;DHT22;60945;48.516;-2.768;2023-02-08T16:08:50;11.40;49.10
72814;DHT22;60945;48.516;-2.768;2023-02-08T16:11:24;11.50;49.50
72814;DHT22;60945;48.516;-2.768;2023-02-08T16:13:52;11.30;50.00
72814;DHT22;60945;48.516;-2.768;2023-02-08T16:16:25;11.30;50.50
72814;DHT22;60945;48.516;-2.768;2023-02-08T16:19:50;11.00;50.80
72814;DHT22;60945;48.516;-2.768;2023-02-08T16:21:52;10.90;51.50
72814;DHT22;60945;48.516;-2.768;2023-02-08T16:24:21;10.90;51.70
72814;DHT22;60945;48.516;-2.768;2023-02-08T16:26:57;10.90;52.10
72814;DHT22;60945;48.516;-2.768;2023-02-08T16:34:22;10.60;52.80
72814;DHT22;60945;48.516;-2.768;2023-02-08T16:36:50;10.50;52.80
72814;DHT22;60945;48.516;-2.768;2023-02-08T16:46:49;10.30;54.00
72814;DHT22;60945;48.516;-2.768;2023-02-08T16:49:14;10.30;54.10
72814;DHT22;60945;48.516;-2.768;2023-02-08T16:51:40;10.00;55.00
72814;DHT22;60945;48.516;-2.768;2023-02-08T16:54:12;9.90;55.40
72814;DHT22;60945;48.516;-2.768;2023-02-08T16:56:38;9.90;55.50
72814;DHT22;60945;48.516;-2.768;2023-02-08T16:59:05;9.80;55.80
72814;DHT22;60945;48.516;-2.768;2023-02-08T17:01:31;9.80;55.90
72814;DHT22;60945;48.516;-2.768;2023-02-08T17:03:58;9.70;56.30
72814;DHT22;60945;48.516;-2.768;2023-02-08T17:06:36;9.70;56.30
72814;DHT22;60945;48.516;-2.768;2023-02-08T17:09:04;9.70;56.30
72814;DHT22;60945;48.516;-2.768;2023-02-08T17:11:30;9.50;56.90
72814;DHT22;60945;48.516;-2.768;2023-02-08T17:13:56;9.40;57.20
72814;DHT22;60945;48.516;-2.768;2023-02-08T17:16:25;9.20;57.70
72814;DHT22;60945;48.516;-2.768;2023-02-08T17:18:51;9.10;58.00
72814;DHT22;60945;48.516;-2.768;2023-02-08T17:21:17;9.10;58.30
72814;DHT22;60945;48.516;-2.768;2023-02-08T17:23:43;8.70;59.10
72814;DHT22;60945;48.516;-2.768;2023-02-08T17:26:15;8.50;60.10
72814;DHT22;60945;48.516;-2.768;2023-02-08T17:28:42;8.50;60.10
72814;DHT22;60945;48.516;-2.768;2023-02-08T17:31:10;8.40;60.00
72814;DHT22;60945;48.516;-2.768;2023-02-08T17:33:37;8.30;60.50
72814;DHT22;60945;48.516;-2.768;2023-02-08T17:36:05;8.30;60.50
72814;DHT22;60945;48.516;-2.768;2023-02-08T17:38:31;8.20;61.00
72814;DHT22;60945;48.516;-2.768;2023-02-08T17:40:57;8.30;60.60
72814;DHT22;60945;48.516;-2.768;2023-02-08T17:43:25;8.20;60.90
72814;DHT22;60945;48.516;-2.768;2023-02-08T17:45:51;7.90;61.60
72814;DHT22;60945;48.516;-2.768;2023-02-08T17:48:16;8.00;61.80
72814;DHT22;60945;48.516;-2.768;2023-02-08T17:50:43;8.00;61.60
72814;DHT22;60945;48.516;-2.768;2023-02-08T17:53:12;7.90;61.90
72814;DHT22;60945;48.516;-2.768;2023-02-08T17:55:42;7.90;61.90
72814;DHT22;60945;48.516;-2.768;2023-02-08T17:58:08;7.90;62.00
72814;DHT22;60945;48.516;-2.768;2023-02-08T18:00:34;7.80;62.50
72814;DHT22;60945;48.516;-2.768;2023-02-08T18:03:00;7.70;62.30
72814;DHT22;60945;48.516;-2.768;2023-02-08T18:05:26;7.80;62.50
72814;DHT22;60945;48.516;-2.768;2023-02-08T18:07:54;7.80;62.20
72814;DHT22;60945;48.516;-2.768;2023-02-08T18:10:20;7.60;62.50
72814;DHT22;60945;48.516;-2.768;2023-02-08T18:12:45;7.70;63.00
72814;DHT22;60945;48.516;-2.768;2023-02-08T18:15:14;7.60;62.70